sensor_id;sensor_type;location;lat;lon;timestamp;pressure;altitude;pressure_sealevel;temperature
8533;BMP280;4304;53.876;10.662;2023-05-10T00:00:14;100910.22;;;12.83
8533;BMP280;4304;53.876;10.662;2023-05-10T00:02:39;100913.59;;;12.73
8533;BMP280;4304;53.876;10.662;2023-05-10T00:05:05;100918.19;;;12.70
8533;BMP280;4304;53.876;10.662;2023-05-10T00:07:31;100900.59;;;12.61
8533;BMP280;4304;53.876;10.662;2023-05-10T00:09:56;100895.59;;;12.58
8533;BMP280;4304;53.876;10.662;2023-05-10T00:12:22;100902.72;;;12.56
8533;BMP280;4304;53.876;10.662;2023-05-10T00:14:47;100894.38;;;12.51
8533;BMP280;4304;53.876;10.662;2023-05-10T00:17:12;100894.84;;;12.45
8533;BMP280;4304;53.876;10.662;2023-05-10T00:19:38;100900.78;;;12.47
8533;BMP280;4304;53.876;10.662;2023-05-10T00:22:03;100885.47;;;12.42
8533;BMP280;4304;53.876;10.662;2023-05-10T00:24:28;100876.22;;;12.38
8533;BMP280;4304;53.876;10.662;2023-05-10T00:26:54;100878.94;;;12.37
8533;BMP280;4304;53.876;10.662;2023-05-10T00:29:19;100885.06;;;12.36
8533;BMP280;4304;53.876;10.662;2023-05-10T00:31:44;100877.94;;;12.27
8533;BMP280;4304;53.876;10.662;2023-05-10T00:34:10;100886.91;;;12.23
8533;BMP280;4304;53.876;10.662;2023-05-10T00:36:36;100872.00;;;12.25
8533;BMP280;4304;53.876;10.662;2023-05-10T00:39:01;100872.13;;;12.24
8533;BMP280;4304;53.876;10.662;2023-05-10T00:41:28;100863.34;;;12.25
8533;BMP280;4304;53.876;10.662;2023-05-10T00:43:53;100885.84;;;12.26
8533;BMP280;4304;53.876;10.662;2023-05-10T00:46:19;100879.53;;;12.17
8533;BMP280;4304;53.876;10.662;2023-05-10T00:48:44;100869.22;;;12.16
8533;BMP280;4304;53.876;10.662;2023-05-10T00:51:10;100867.44;;;12.16
8533;BMP280;4304;53.876;10.662;2023-05-10T00:53:35;100868.41;;;12.15
8533;BMP280;4304;53.876;10.662;2023-05-10T00:56:01;100867.66;;;12.13
8533;BMP280;4304;53.876;10.662;2023-05-10T00:58:28;100864.34;;;12.11
8533;BMP280;4304;53.876;10.662;2023-05-10T01:00:55;100847.88;;;12.11
8533;BMP280;4304;53.876;10.662;2023-05-10T01:03:22;100848.69;;;12.11
8533;BMP280;4304;53.876;10.662;2023-05-10T01:05:47;100861.63;;;12.13
8533;BMP280;4304;53.876;10.662;2023-05-10T01:08:12;100866.63;;;12.16
8533;BMP280;4304;53.876;10.662;2023-05-10T01:10:38;100864.44;;;12.10
8533;BMP280;4304;53.876;10.662;2023-05-10T01:13:03;100856.00;;;12.06
8533;BMP280;4304;53.876;10.662;2023-05-10T01:15:29;100856.00;;;12.06
8533;BMP280;4304;53.876;10.662;2023-05-10T01:17:56;100837.88;;;12.05
8533;BMP280;4304;53.876;10.662;2023-05-10T01:20:21;100851.00;;;12.03
8533;BMP280;4304;53.876;10.662;2023-05-10T01:31:24;100839.59;;;11.93
8533;BMP280;4304;53.876;10.662;2023-05-10T01:33:55;100838.88;;;11.92
8533;BMP280;4304;53.876;10.662;2023-05-10T01:36:31;100846.47;;;11.94
8533;BMP280;4304;53.876;10.662;2023-05-10T01:39:11;100834.72;;;11.89
8533;BMP280;4304;53.876;10.662;2023-05-10T01:41:51;100835.66;;;11.88
8533;BMP280;4304;53.876;10.662;2023-05-10T01:44:26;100838.38;;;11.87
8533;BMP280;4304;53.876;10.662;2023-05-10T01:47:12;100831.28;;;11.89
8533;BMP280;4304;53.876;10.662;2023-05-10T01:49:45;100833.47;;;11.82
8533;BMP280;4304;53.876;10.662;2023-05-10T01:52:14;100840.56;;;11.80
8533;BMP280;4304;53.876;10.662;2023-05-10T01:55:00;100837.03;;;11.81
8533;BMP280;4304;53.876;10.662;2023-05-10T01:57:30;100839.75;;;11.80
8533;BMP280;4304;53.876;10.662;2023-05-10T01:59:58;100835.69;;;11.76
8533;BMP280;4304;53.876;10.662;2023-05-10T02:02:27;100835.69;;;11.76
8533;BMP280;4304;53.876;10.662;2023-05-10T02:04:53;100839.97;;;11.77
8533;BMP280;4304;53.876;10.662;2023-05-10T02:07:21;100836.84;;;11.72
8533;BMP280;4304;53.876;10.662;2023-05-10T02:09:47;100842.78;;;11.74
8533;BMP280;4304;53.876;10.662;2023-05-10T02:12:13;100838.72;;;11.70
8533;BMP280;4304;53.876;10.662;2023-05-10T02:14:41;100832.41;;;11.61
8533;BMP280;4304;53.876;10.662;2023-05-10T02:17:07;100833.03;;;11.65
8533;BMP280;4304;53.876;10.662;2023-05-10T02:19:34;100830.41;;;11.65
8533;BMP280;4304;53.876;10.662;2023-05-10T02:22:01;100832.41;;;11.61
8533;BMP280;4304;53.876;10.662;2023-05-10T02:24:28;100837.81;;;11.58
8533;BMP280;4304;53.876;10.662;2023-05-10T02:26:55;100826.78;;;11.55
8533;BMP280;4304;53.876;10.662;2023-05-10T02:29:24;100823.69;;;11.50
8533;BMP280;4304;53.876;10.662;2023-05-10T02:31:54;100827.47;;;11.45
8533;BMP280;4304;53.876;10.662;2023-05-10T02:34:22;100830.19;;;11.43
8533;BMP280;4304;53.876;10.662;2023-05-10T02:36:49;100826.97;;;11.40
8533;BMP280;4304;53.876;10.662;2023-05-10T02:39:18;100809.72;;;11.39
8533;BMP280;4304;53.876;10.662;2023-05-10T02:41:44;100836.56;;;11.39
8533;BMP280;4304;53.876;10.662;2023-05-10T02:44:14;100836.03;;;11.34
8533;BMP280;4304;53.876;10.662;2023-05-10T02:46:40;100831.16;;;11.42
8533;BMP280;4304;53.876;10.662;2023-05-10T02:49:06;100828.53;;;11.30
8533;BMP280;4304;53.876;10.662;2023-05-10T02:51:34;100825.94;;;11.30
8533;BMP280;4304;53.876;10.662;2023-05-10T02:54:06;100833.84;;;11.28
8533;BMP280;4304;53.876;10.662;2023-05-10T02:56:34;100838.13;;;11.29
8533;BMP280;4304;53.876;10.662;2023-05-10T02:59:00;100829.81;;;11.24
8533;BMP280;4304;53.876;10.662;2023-05-10T03:01:26;100838.22;;;11.28
8533;BMP280;4304;53.876;10.662;2023-05-10T03:03:51;100840.09;;;11.26
8533;BMP280;4304;53.876;10.662;2023-05-10T03:06:16;100840.41;;;11.21
8533;BMP280;4304;53.876;10.662;2023-05-10T03:08:43;100833.31;;;11.23
8533;BMP280;4304;53.876;10.662;2023-05-10T03:11:30;100837.81;;;11.21
8533;BMP280;4304;53.876;10.662;2023-05-10T03:16:41;100840.41;;;11.21
8533;BMP280;4304;53.876;10.662;2023-05-10T03:21:37;100835.50;;;11.17
8533;BMP280;4304;53.876;10.662;2023-05-10T03:24:07;100837.19;;;11.18
8533;BMP280;4304;53.876;10.662;2023-05-10T03:26:34;100839.06;;;11.16
8533;BMP280;4304;53.876;10.662;2023-05-10T03:29:01;100836.56;;;11.14
8533;BMP280;4304;53.876;10.662;2023-05-10T03:31:27;100831.16;;;11.05
8533;BMP280;4304;53.876;10.662;2023-05-10T03:33:52;100842.78;;;11.12
8533;BMP280;4304;53.876;10.662;2023-05-10T03:36:19;100839.47;;;11.10
8533;BMP280;4304;53.876;10.662;2023-05-10T03:38:44;100843.84;;;11.09
8533;BMP280;4304;53.876;10.662;2023-05-10T03:41:09;100845.28;;;11.13
8533;BMP280;4304;53.876;10.662;2023-05-10T03:43:35;100844.47;;;11.13
8533;BMP280;4304;53.876;10.662;2023-05-10T03:46:04;100835.84;;;11.12
8533;BMP280;4304;53.876;10.662;2023-05-10T03:48:29;100841.16;;;11.11
8533;BMP280;4304;53.876;10.662;2023-05-10T03:50:55;100830.03;;;11.09
8533;BMP280;4304;53.876;10.662;2023-05-10T03:53:20;100837.81;;;11.09
8533;BMP280;4304;53.876;10.662;2023-05-10T03:55:46;100835.13;;;11.10
8533;BMP280;4304;53.876;10.662;2023-05-10T03:58:11;100840.19;;;11.12
8533;BMP280;4304;53.876;10.662;2023-05-10T04:00:37;100823.03;;;11.09
8533;BMP280;4304;53.876;10.662;2023-05-10T04:03:02;100829.59;;;11.15
8533;BMP280;4304;53.876;10.662;2023-05-10T04:05:29;100829.91;;;11.23
8533;BMP280;4304;53.876;10.662;2023-05-10T04:07:54;100840.94;;;11.26
8533;BMP280;4304;53.876;10.662;2023-05-10T04:10:19;100834.59;;;11.30
8533;BMP280;4304;53.876;10.662;2023-05-10T04:12:46;100841.44;;;11.31
8533;BMP280;4304;53.876;10.662;2023-05-10T04:15:11;100845.69;;;11.45
8533;BMP280;4304;53.876;10.662;2023-05-10T04:17:36;100820.53;;;11.45
8533;BMP280;4304;53.876;10.662;2023-05-10T04:20:03;100836.75;;;11.61
8533;BMP280;4304;53.876;10.662;2023-05-10T04:22:28;100828.75;;;11.64
8533;BMP280;4304;53.876;10.662;2023-05-10T04:24:54;100841.47;;;11.92
8533;BMP280;4304;53.876;10.662;2023-05-10T04:27:19;100830.28;;;12.02
8533;BMP280;4304;53.876;10.662;2023-05-10T04:29:44;100856.63;;;12.33
8533;BMP280;4304;53.876;10.662;2023-05-10T04:32:10;100864.00;;;12.39
8533;BMP280;4304;53.876;10.662;2023-05-10T04:34:36;100870.84;;;12.29
8533;BMP280;4304;53.876;10.662;2023-05-10T04:37:01;100862.38;;;12.72
8533;BMP280;4304;53.876;10.662;2023-05-10T04:39:27;100886.56;;;13.08
8533;BMP280;4304;53.876;10.662;2023-05-10T04:41:52;100882.53;;;13.04
8533;BMP280;4304;53.876;10.662;2023-05-10T04:44:17;100891.72;;;13.31
8533;BMP280;4304;53.876;10.662;2023-05-10T04:46:43;100882.97;;;13.43
8533;BMP280;4304;53.876;10.662;2023-05-10T04:49:08;100911.00;;;14.07
8533;BMP280;4304;53.876;10.662;2023-05-10T04:51:33;100910.88;;;13.75
8533;BMP280;4304;53.876;10.662;2023-05-10T04:53:59;100891.03;;;13.40
8533;BMP280;4304;53.876;10.662;2023-05-10T04:56:24;100900.66;;;13.40
8533;BMP280;4304;53.876;10.662;2023-05-10T04:58:49;100894.72;;;13.81
8533;BMP280;4304;53.876;10.662;2023-05-10T05:01:15;100908.75;;;14.02
8533;BMP280;4304;53.876;10.662;2023-05-10T05:03:40;100881.06;;;13.34
8533;BMP280;4304;53.876;10.662;2023-05-10T05:06:06;100908.88;;;13.68
8533;BMP280;4304;53.876;10.662;2023-05-10T05:08:31;100888.81;;;13.79
8533;BMP280;4304;53.876;10.662;2023-05-10T05:10:57;100901.03;;;14.01
8533;BMP280;4304;53.876;10.662;2023-05-10T05:13:22;100886.28;;;13.45
8533;BMP280;4304;53.876;10.662;2023-05-10T05:15:47;100882.75;;;13.57
8533;BMP280;4304;53.876;10.662;2023-05-10T05:18:13;100866.69;;;13.29
8533;BMP280;4304;53.876;10.662;2023-05-10T05:20:38;100894.13;;;13.78
8533;BMP280;4304;53.876;10.662;2023-05-10T05:23:03;100903.16;;;13.96
8533;BMP280;4304;53.876;10.662;2023-05-10T05:25:29;100896.38;;;13.93
8533;BMP280;4304;53.876;10.662;2023-05-10T05:27:54;100873.84;;;13.49
8533;BMP280;4304;53.876;10.662;2023-05-10T05:30:19;100880.47;;;13.42
8533;BMP280;4304;53.876;10.662;2023-05-10T05:32:45;100869.19;;;13.41
8533;BMP280;4304;53.876;10.662;2023-05-10T05:35:12;100881.44;;;13.84
8533;BMP280;4304;53.876;10.662;2023-05-10T05:37:37;100907.56;;;14.17
8533;BMP280;4304;53.876;10.662;2023-05-10T05:40:03;100908.50;;;14.27
8533;BMP280;4304;53.876;10.662;2023-05-10T05:42:28;100883.47;;;13.81
8533;BMP280;4304;53.876;10.662;2023-05-10T05:44:53;100902.91;;;14.20
8533;BMP280;4304;53.876;10.662;2023-05-10T05:47:19;100906.13;;;14.13
8533;BMP280;4304;53.876;10.662;2023-05-10T05:49:44;100920.88;;;14.56
8533;BMP280;4304;53.876;10.662;2023-05-10T05:52:12;100901.63;;;14.04
8533;BMP280;4304;53.876;10.662;2023-05-10T05:54:37;100921.50;;;14.49
8533;BMP280;4304;53.876;10.662;2023-05-10T05:57:03;100915.94;;;14.42
8533;BMP280;4304;53.876;10.662;2023-05-10T05:59:28;100938.03;;;14.80
8533;BMP280;4304;53.876;10.662;2023-05-10T06:01:54;100922.84;;;14.74
8533;BMP280;4304;53.876;10.662;2023-05-10T06:04:19;100904.25;;;14.57
8533;BMP280;4304;53.876;10.662;2023-05-10T06:06:44;100914.81;;;14.87
8533;BMP280;4304;53.876;10.662;2023-05-10T06:09:10;100900.56;;;14.91
8533;BMP280;4304;53.876;10.662;2023-05-10T06:11:36;100903.78;;;14.83
8533;BMP280;4304;53.876;10.662;2023-05-10T06:14:02;100914.66;;;14.68
8533;BMP280;4304;53.876;10.662;2023-05-10T06:16:28;100904.34;;;14.55
8533;BMP280;4304;53.876;10.662;2023-05-10T06:18:54;100892.44;;;15.14
8533;BMP280;4304;53.876;10.662;2023-05-10T06:21:19;100939.84;;;15.51
8533;BMP280;4304;53.876;10.662;2023-05-10T06:23:44;100951.53;;;15.47
8533;BMP280;4304;53.876;10.662;2023-05-10T06:26:10;100961.75;;;16.39
8533;BMP280;4304;53.876;10.662;2023-05-10T06:28:35;100956.09;;;16.25
8533;BMP280;4304;53.876;10.662;2023-05-10T06:31:03;100929.91;;;15.75
8533;BMP280;4304;53.876;10.662;2023-05-10T06:33:29;100937.25;;;15.81
8533;BMP280;4304;53.876;10.662;2023-05-10T06:35:55;100915.63;;;15.59
8533;BMP280;4304;53.876;10.662;2023-05-10T06:38:20;100923.59;;;15.57
8533;BMP280;4304;53.876;10.662;2023-05-10T06:40:46;100957.84;;;16.24
8533;BMP280;4304;53.876;10.662;2023-05-10T06:43:11;100932.69;;;16.13
8533;BMP280;4304;53.876;10.662;2023-05-10T06:45:37;100967.38;;;16.74
8533;BMP280;4304;53.876;10.662;2023-05-10T06:48:02;100962.63;;;16.40
8533;BMP280;4304;53.876;10.662;2023-05-10T06:50:27;100974.84;;;17.07
8533;BMP280;4304;53.876;10.662;2023-05-10T06:52:53;100958.53;;;17.12
8533;BMP280;4304;53.876;10.662;2023-05-10T06:55:18;100983.81;;;17.60
8533;BMP280;4304;53.876;10.662;2023-05-10T06:57:44;101019.44;;;18.00
8533;BMP280;4304;53.876;10.662;2023-05-10T07:00:09;100990.22;;;17.49
8533;BMP280;4304;53.876;10.662;2023-05-10T07:02:35;100933.81;;;16.87
8533;BMP280;4304;53.876;10.662;2023-05-10T07:05:00;100971.53;;;17.33
8533;BMP280;4304;53.876;10.662;2023-05-10T07:07:27;100995.00;;;17.72
8533;BMP280;4304;53.876;10.662;2023-05-10T07:09:52;100982.38;;;17.85
8533;BMP280;4304;53.876;10.662;2023-05-10T07:12:17;100993.00;;;18.38
8533;BMP280;4304;53.876;10.662;2023-05-10T07:14:43;100984.44;;;18.36
8533;BMP280;4304;53.876;10.662;2023-05-10T07:17:09;100989.91;;;18.06
8533;BMP280;4304;53.876;10.662;2023-05-10T07:19:34;100984.03;;;18.58
8533;BMP280;4304;53.876;10.662;2023-05-10T07:21:59;100997.50;;;19.33
8533;BMP280;4304;53.876;10.662;2023-05-10T07:24:25;101003.47;;;18.47
8533;BMP280;4304;53.876;10.662;2023-05-10T07:26:50;100983.97;;;18.14
8533;BMP280;4304;53.876;10.662;2023-05-10T07:29:15;100953.28;;;17.59
8533;BMP280;4304;53.876;10.662;2023-05-10T07:31:41;100965.53;;;17.78
8533;BMP280;4304;53.876;10.662;2023-05-10T07:34:08;100975.13;;;18.05
8533;BMP280;4304;53.876;10.662;2023-05-10T07:36:33;100980.25;;;18.07
8533;BMP280;4304;53.876;10.662;2023-05-10T07:38:58;100964.59;;;18.41
8533;BMP280;4304;53.876;10.662;2023-05-10T07:41:24;100953.59;;;17.28
8533;BMP280;4304;53.876;10.662;2023-05-10T07:43:49;100941.28;;;17.19
8533;BMP280;4304;53.876;10.662;2023-05-10T07:46:14;100949.66;;;18.33
8533;BMP280;4304;53.876;10.662;2023-05-10T07:48:40;100968.19;;;18.14
8533;BMP280;4304;53.876;10.662;2023-05-10T07:51:05;100942.69;;;18.85
8533;BMP280;4304;53.876;10.662;2023-05-10T07:53:32;101008.56;;;19.02
8533;BMP280;4304;53.876;10.662;2023-05-10T07:55:58;100999.06;;;19.44
8533;BMP280;4304;53.876;10.662;2023-05-10T07:58:24;100994.94;;;19.24
8533;BMP280;4304;53.876;10.662;2023-05-10T08:00:49;100972.69;;;20.19
8533;BMP280;4304;53.876;10.662;2023-05-10T08:03:15;101049.97;;;20.04
8533;BMP280;4304;53.876;10.662;2023-05-10T08:05:41;101017.19;;;19.64
8533;BMP280;4304;53.876;10.662;2023-05-10T08:08:06;101045.22;;;20.41
8533;BMP280;4304;53.876;10.662;2023-05-10T08:10:32;101041.22;;;20.29
8533;BMP280;4304;53.876;10.662;2023-05-10T08:12:57;101030.94;;;20.92
8533;BMP280;4304;53.876;10.662;2023-05-10T08:15:26;101051.84;;;20.78
8533;BMP280;4304;53.876;10.662;2023-05-10T08:17:52;101028.16;;;20.27
8533;BMP280;4304;53.876;10.662;2023-05-10T08:20:17;101026.34;;;20.20
8533;BMP280;4304;53.876;10.662;2023-05-10T08:22:45;101026.03;;;20.23
8533;BMP280;4304;53.876;10.662;2023-05-10T08:25:10;101008.41;;;19.56
8533;BMP280;4304;53.876;10.662;2023-05-10T08:27:35;100976.84;;;19.46
8533;BMP280;4304;53.876;10.662;2023-05-10T08:30:01;100983.09;;;19.45
8533;BMP280;4304;53.876;10.662;2023-05-10T08:32:26;100995.34;;;18.85
8533;BMP280;4304;53.876;10.662;2023-05-10T08:34:51;100976.84;;;19.29
8533;BMP280;4304;53.876;10.662;2023-05-10T08:37:16;100981.25;;;19.03
8533;BMP280;4304;53.876;10.662;2023-05-10T08:39:42;100999.91;;;19.69
8533;BMP280;4304;53.876;10.662;2023-05-10T08:42:08;100992.91;;;19.35
8533;BMP280;4304;53.876;10.662;2023-05-10T08:44:35;101029.31;;;20.25
8533;BMP280;4304;53.876;10.662;2023-05-10T08:47:05;101019.06;;;19.89
8533;BMP280;4304;53.876;10.662;2023-05-10T08:49:34;101030.13;;;19.92
8533;BMP280;4304;53.876;10.662;2023-05-10T08:52:02;100953.34;;;18.83
8533;BMP280;4304;53.876;10.662;2023-05-10T08:54:28;100989.66;;;19.41
8533;BMP280;4304;53.876;10.662;2023-05-10T08:56:55;100953.69;;;19.15
8533;BMP280;4304;53.876;10.662;2023-05-10T08:59:21;100979.50;;;19.46
8533;BMP280;4304;53.876;10.662;2023-05-10T09:01:47;101006.13;;;20.03
8533;BMP280;4304;53.876;10.662;2023-05-10T09:04:14;101001.03;;;20.99
8533;BMP280;4304;53.876;10.662;2023-05-10T09:06:39;101053.28;;;21.29
8533;BMP280;4304;53.876;10.662;2023-05-10T09:09:05;101049.50;;;20.67
8533;BMP280;4304;53.876;10.662;2023-05-10T09:11:30;101019.50;;;20.76
8533;BMP280;4304;53.876;10.662;2023-05-10T09:17:44;101070.09;;;20.97
8533;BMP280;4304;53.876;10.662;2023-05-10T09:20:20;101034.88;;;20.80
8533;BMP280;4304;53.876;10.662;2023-05-10T09:22:50;101040.06;;;21.05
8533;BMP280;4304;53.876;10.662;2023-05-10T09:25:22;101023.72;;;21.18
8533;BMP280;4304;53.876;10.662;2023-05-10T09:27:55;101038.56;;;21.11
8533;BMP280;4304;53.876;10.662;2023-05-10T09:30:34;101039.50;;;20.86
8533;BMP280;4304;53.876;10.662;2023-05-10T09:33:05;101022.25;;;20.00
8533;BMP280;4304;53.876;10.662;2023-05-10T09:35:49;100990.09;;;20.05
8533;BMP280;4304;53.876;10.662;2023-05-10T09:38:50;100963.72;;;20.95
8533;BMP280;4304;53.876;10.662;2023-05-10T09:41:21;101042.66;;;20.82
8533;BMP280;4304;53.876;10.662;2023-05-10T09:44:02;101023.31;;;19.90
8533;BMP280;4304;53.876;10.662;2023-05-10T09:46:34;100979.50;;;19.46
8533;BMP280;4304;53.876;10.662;2023-05-10T09:49:01;100977.50;;;19.48
8533;BMP280;4304;53.876;10.662;2023-05-10T09:51:38;100988.19;;;20.14
8533;BMP280;4304;53.876;10.662;2023-05-10T09:54:14;101019.88;;;20.48
8533;BMP280;4304;53.876;10.662;2023-05-10T09:57:01;101022.47;;;20.40
8533;BMP280;4304;53.876;10.662;2023-05-10T09:59:38;101016.56;;;20.95
8533;BMP280;4304;53.876;10.662;2023-05-10T10:02:09;101000.22;;;20.91
8533;BMP280;4304;53.876;10.662;2023-05-10T10:04:49;101027.88;;;21.52
8533;BMP280;4304;53.876;10.662;2023-05-10T10:07:24;101033.06;;;20.81
8533;BMP280;4304;53.876;10.662;2023-05-10T10:09:54;100984.00;;;20.78
8533;BMP280;4304;53.876;10.662;2023-05-10T10:15:42;101013.97;;;21.18
8533;BMP280;4304;53.876;10.662;2023-05-10T10:18:22;101034.00;;;20.72
8533;BMP280;4304;53.876;10.662;2023-05-10T10:21:18;101005.13;;;20.37
8533;BMP280;4304;53.876;10.662;2023-05-10T10:23:59;100989.31;;;20.45
8533;BMP280;4304;53.876;10.662;2023-05-10T10:26:40;100963.03;;;20.77
8533;BMP280;4304;53.876;10.662;2023-05-10T10:29:36;100988.97;;;20.40
8533;BMP280;4304;53.876;10.662;2023-05-10T10:32:20;100972.13;;;20.74
8533;BMP280;4304;53.876;10.662;2023-05-10T10:34:49;101026.78;;;20.82
8533;BMP280;4304;53.876;10.662;2023-05-10T10:37:16;100985.31;;;20.00
8533;BMP280;4304;53.876;10.662;2023-05-10T10:39:43;101009.31;;;19.89
8533;BMP280;4304;53.876;10.662;2023-05-10T10:42:10;100991.16;;;20.12
8533;BMP280;4304;53.876;10.662;2023-05-10T10:44:41;100964.13;;;19.84
8533;BMP280;4304;53.876;10.662;2023-05-10T10:50:07;100988.78;;;20.34
8533;BMP280;4304;53.876;10.662;2023-05-10T10:52:41;100988.44;;;20.70
8533;BMP280;4304;53.876;10.662;2023-05-10T10:55:24;100974.91;;;20.73
8533;BMP280;4304;53.876;10.662;2023-05-10T10:57:57;101003.00;;;20.74
8533;BMP280;4304;53.876;10.662;2023-05-10T11:00:36;101004.59;;;20.67
8533;BMP280;4304;53.876;10.662;2023-05-10T11:03:21;100983.34;;;20.76
8533;BMP280;4304;53.876;10.662;2023-05-10T11:06:04;100980.75;;;21.00
8533;BMP280;4304;53.876;10.662;2023-05-10T11:08:48;100994.00;;;20.26
8533;BMP280;4304;53.876;10.662;2023-05-10T11:14:29;100969.75;;;20.22
8533;BMP280;4304;53.876;10.662;2023-05-10T11:17:27;100968.69;;;20.08
8533;BMP280;4304;53.876;10.662;2023-05-10T11:20:14;100952.91;;;20.64
8533;BMP280;4304;53.876;10.662;2023-05-10T11:23:10;100978.25;;;20.42
8533;BMP280;4304;53.876;10.662;2023-05-10T11:25:59;100950.97;;;20.74
8533;BMP280;4304;53.876;10.662;2023-05-10T11:28:58;100964.22;;;20.00
8533;BMP280;4304;53.876;10.662;2023-05-10T11:31:48;100952.78;;;20.25
8533;BMP280;4304;53.876;10.662;2023-05-10T11:34:32;100962.38;;;20.34
8533;BMP280;4304;53.876;10.662;2023-05-10T11:37:08;100982.16;;;19.97
8533;BMP280;4304;53.876;10.662;2023-05-10T11:39:54;100964.91;;;20.43
8533;BMP280;4304;53.876;10.662;2023-05-10T11:42:55;101001.06;;;20.58
8533;BMP280;4304;53.876;10.662;2023-05-10T11:45:26;100981.84;;;20.33
8533;BMP280;4304;53.876;10.662;2023-05-10T11:48:09;101003.69;;;20.51
8533;BMP280;4304;53.876;10.662;2023-05-10T11:51:06;101016.22;;;20.90
8533;BMP280;4304;53.876;10.662;2023-05-10T11:53:56;100998.56;;;20.82
8533;BMP280;4304;53.876;10.662;2023-05-10T11:56:32;100961.16;;;20.61
8533;BMP280;4304;53.876;10.662;2023-05-10T11:59:14;101001.03;;;20.84
8533;BMP280;4304;53.876;10.662;2023-05-10T12:01:55;101004.63;;;20.34
8533;BMP280;4304;53.876;10.662;2023-05-10T12:04:40;100976.56;;;19.74
8533;BMP280;4304;53.876;10.662;2023-05-10T12:07:40;100986.69;;;20.12
8533;BMP280;4304;53.876;10.662;2023-05-10T12:10:12;100925.75;;;20.39
8533;BMP280;4304;53.876;10.662;2023-05-10T12:12:58;100942.09;;;20.42
8533;BMP280;4304;53.876;10.662;2023-05-10T12:15:52;100955.31;;;20.42
8533;BMP280;4304;53.876;10.662;2023-05-10T13:13:09;100994.22;;;17.15
8533;BMP280;4304;53.876;10.662;2023-05-10T13:19:21;101020.44;;;16.77
8533;BMP280;4304;53.876;10.662;2023-05-10T13:21:58;101012.44;;;16.79
8533;BMP280;4304;53.876;10.662;2023-05-10T13:24:29;101019.84;;;16.65
8533;BMP280;4304;53.876;10.662;2023-05-10T13:27:07;101008.13;;;16.78
8533;BMP280;4304;53.876;10.662;2023-05-10T13:29:44;101018.81;;;16.95
8533;BMP280;4304;53.876;10.662;2023-05-10T13:32:14;101013.41;;;16.87
8533;BMP280;4304;53.876;10.662;2023-05-10T13:35:01;101016.59;;;16.91
8533;BMP280;4304;53.876;10.662;2023-05-10T13:37:31;101026.69;;;16.95
8533;BMP280;4304;53.876;10.662;2023-05-10T13:40:17;101029.22;;;16.67
8533;BMP280;4304;53.876;10.662;2023-05-10T13:43:12;101024.59;;;16.89
8533;BMP280;4304;53.876;10.662;2023-05-10T13:45:50;101041.44;;;16.87
8533;BMP280;4304;53.876;10.662;2023-05-10T13:48:20;101041.00;;;16.72
8533;BMP280;4304;53.876;10.662;2023-05-10T13:50:57;101034.22;;;16.70
8533;BMP280;4304;53.876;10.662;2023-05-10T13:53:46;101040.81;;;16.55
8533;BMP280;4304;53.876;10.662;2023-05-10T13:56:18;101038.13;;;16.46
8533;BMP280;4304;53.876;10.662;2023-05-10T13:59:06;101033.88;;;16.45
8533;BMP280;4304;53.876;10.662;2023-05-10T14:01:37;101029.53;;;16.34
8533;BMP280;4304;53.876;10.662;2023-05-10T14:04:03;101030.59;;;16.23
8533;BMP280;4304;53.876;10.662;2023-05-10T14:06:28;101040.47;;;16.19
8533;BMP280;4304;53.876;10.662;2023-05-10T14:08:54;101036.81;;;16.22
8533;BMP280;4304;53.876;10.662;2023-05-10T14:11:19;101028.66;;;16.24
8533;BMP280;4304;53.876;10.662;2023-05-10T14:13:45;101029.38;;;16.26
8533;BMP280;4304;53.876;10.662;2023-05-10T14:16:10;101029.38;;;16.26
8533;BMP280;4304;53.876;10.662;2023-05-10T14:18:36;101032.44;;;16.31
8533;BMP280;4304;53.876;10.662;2023-05-10T14:21:02;101041.81;;;16.34
8533;BMP280;4304;53.876;10.662;2023-05-10T14:23:28;101034.38;;;16.39
8533;BMP280;4304;53.876;10.662;2023-05-10T14:25:54;101038.00;;;16.47
8533;BMP280;4304;53.876;10.662;2023-05-10T14:28:19;101024.66;;;16.60
8533;BMP280;4304;53.876;10.662;2023-05-10T14:30:46;101026.19;;;16.62
8533;BMP280;4304;53.876;10.662;2023-05-10T14:33:11;101029.09;;;16.59
8533;BMP280;4304;53.876;10.662;2023-05-10T14:35:37;101036.06;;;16.49
8533;BMP280;4304;53.876;10.662;2023-05-10T14:38:03;101027.41;;;16.58
8533;BMP280;4304;53.876;10.662;2023-05-10T14:40:28;101019.56;;;16.58
8533;BMP280;4304;53.876;10.662;2023-05-10T14:42:54;101024.53;;;16.61
8533;BMP280;4304;53.876;10.662;2023-05-10T14:45:20;101030.59;;;16.62
8533;BMP280;4304;53.876;10.662;2023-05-10T14:47:46;101028.56;;;16.74
8533;BMP280;4304;53.876;10.662;2023-05-10T14:50:11;101023.03;;;16.68
8533;BMP280;4304;53.876;10.662;2023-05-10T14:52:36;101040.28;;;16.70
8533;BMP280;4304;53.876;10.662;2023-05-10T14:55:02;101046.13;;;16.74
8533;BMP280;4304;53.876;10.662;2023-05-10T14:57:27;101032.16;;;16.73
8533;BMP280;4304;53.876;10.662;2023-05-10T14:59:55;101037.00;;;16.78
8533;BMP280;4304;53.876;10.662;2023-05-10T15:02:21;101037.00;;;16.78
8533;BMP280;4304;53.876;10.662;2023-05-10T15:04:46;101026.53;;;16.87
8533;BMP280;4304;53.876;10.662;2023-05-10T15:07:12;101035.50;;;16.94
8533;BMP280;4304;53.876;10.662;2023-05-10T15:09:39;101037.41;;;16.73
8533;BMP280;4304;53.876;10.662;2023-05-10T15:12:04;101045.41;;;16.72
8533;BMP280;4304;53.876;10.662;2023-05-10T15:14:30;101034.69;;;16.94
8533;BMP280;4304;53.876;10.662;2023-05-10T15:16:55;101045.00;;;16.76
8533;BMP280;4304;53.876;10.662;2023-05-10T15:19:21;101048.34;;;16.88
8533;BMP280;4304;53.876;10.662;2023-05-10T15:21:46;101039.88;;;16.75
8533;BMP280;4304;53.876;10.662;2023-05-10T15:24:12;101052.16;;;16.65
8533;BMP280;4304;53.876;10.662;2023-05-10T15:26:37;101039.47;;;16.70
8533;BMP280;4304;53.876;10.662;2023-05-10T15:29:03;101048.63;;;16.85
8533;BMP280;4304;53.876;10.662;2023-05-10T15:31:28;101048.91;;;16.91
8533;BMP280;4304;53.876;10.662;2023-05-10T15:33:57;101047.41;;;16.89
8533;BMP280;4304;53.876;10.662;2023-05-10T15:36:25;101055.50;;;16.76
8533;BMP280;4304;53.876;10.662;2023-05-10T15:38:50;101048.19;;;16.80
8533;BMP280;4304;53.876;10.662;2023-05-10T15:41:16;101058.56;;;16.81
8533;BMP280;4304;53.876;10.662;2023-05-10T15:43:42;101058.00;;;16.78
8533;BMP280;4304;53.876;10.662;2023-05-10T15:46:07;101062.38;;;16.68